sensor_id;sensor_type;location;lat;lon;timestamp;temperature;humidity
52381;DHT22;38310;52.796;6.942;2023-04-16T00:00:43;8.40;99.90
52381;DHT22;38310;52.796;6.942;2023-04-16T00:03:10;8.40;99.90
52381;DHT22;38310;52.796;6.942;2023-04-16T00:05:36;8.40;99.90
52381;DHT22;38310;52.796;6.942;2023-04-16T00:08:02;8.40;99.90
52381;DHT22;38310;52.796;6.942;2023-04-16T00:10:27;8.40;99.90
52381;DHT22;38310;52.796;6.942;2023-04-16T00:12:53;8.40;99.90
52381;DHT22;38310;52.796;6.942;2023-04-16T00:15:19;9.10;99.90
52381;DHT22;38310;52.796;6.942;2023-04-16T00:17:45;8.40;99.90
52381;DHT22;38310;52.796;6.942;2023-04-16T00:20:10;8.30;99.90
52381;DHT22;38310;52.796;6.942;2023-04-16T00:22:36;8.40;99.90
52381;DHT22;38310;52.796;6.942;2023-04-16T00:25:02;8.40;99.90
52381;DHT22;38310;52.796;6.942;2023-04-16T00:27:28;8.40;99.90
52381;DHT22;38310;52.796;6.942;2023-04-16T00:29:53;8.40;99.90
52381;DHT22;38310;52.796;6.942;2023-04-16T00:32:19;7.40;99.90
52381;DHT22;38310;52.796;6.942;2023-04-16T00:34:45;8.40;99.90
52381;DHT22;38310;52.796;6.942;2023-04-16T00:37:10;8.40;99.90
52381;DHT22;38310;52.796;6.942;2023-04-16T00:39:36;8.40;99.90
52381;DHT22;38310;52.796;6.942;2023-04-16T00:42:02;8.40;99.90
52381;DHT22;38310;52.796;6.942;2023-04-16T00:44:27;8.40;99.90
52381;DHT22;38310;52.796;6.942;2023-04-16T00:46:55;8.30;99.90
52381;DHT22;38310;52.796;6.942;2023-04-16T00:49:22;8.30;99.90
52381;DHT22;38310;52.796;6.942;2023-04-16T00:51:49;8.30;99.90
52381;DHT22;38310;52.796;6.942;2023-04-16T00:54:15;8.30;99.90
52381;DHT22;38310;52.796;6.942;2023-04-16T00:56:40;8.30;99.90
52381;DHT22;38310;52.796;6.942;2023-04-16T00:59:07;8.30;99.90
52381;DHT22;38310;52.796;6.942;2023-04-16T01:01:33;8.20;99.90
52381;DHT22;38310;52.796;6.942;2023-04-16T01:03:59;8.30;99.90
52381;DHT22;38310;52.796;6.942;2023-04-16T01:06:25;8.30;99.90
52381;DHT22;38310;52.796;6.942;2023-04-16T01:08:51;8.20;99.90
52381;DHT22;38310;52.796;6.942;2023-04-16T01:11:17;8.20;99.90
52381;DHT22;38310;52.796;6.942;2023-04-16T01:13:43;8.20;99.90
52381;DHT22;38310;52.796;6.942;2023-04-16T01:16:10;8.20;99.90
52381;DHT22;38310;52.796;6.942;2023-04-16T01:18:39;8.20;99.90
52381;DHT22;38310;52.796;6.942;2023-04-16T01:21:05;8.20;99.90
52381;DHT22;38310;52.796;6.942;2023-04-16T01:23:31;8.20;99.90
52381;DHT22;38310;52.796;6.942;2023-04-16T01:25:56;8.20;99.90
52381;DHT22;38310;52.796;6.942;2023-04-16T01:28:22;8.10;99.90
52381;DHT22;38310;52.796;6.942;2023-04-16T01:30:48;8.10;99.90
52381;DHT22;38310;52.796;6.942;2023-04-16T01:33:14;8.10;99.90
52381;DHT22;38310;52.796;6.942;2023-04-16T01:35:40;8.10;99.90
52381;DHT22;38310;52.796;6.942;2023-04-16T01:38:07;8.10;99.90
52381;DHT22;38310;52.796;6.942;2023-04-16T01:40:36;8.10;99.90
52381;DHT22;38310;52.796;6.942;2023-04-16T01:43:03;8.40;99.90
52381;DHT22;38310;52.796;6.942;2023-04-16T01:45:31;8.10;99.90
52381;DHT22;38310;52.796;6.942;2023-04-16T01:47:56;8.40;99.90
52381;DHT22;38310;52.796;6.942;2023-04-16T01:50:22;8.00;99.90
52381;DHT22;38310;52.796;6.942;2023-04-16T01:52:48;8.00;99.90
52381;DHT22;38310;52.796;6.942;2023-04-16T01:55:14;8.00;99.90
52381;DHT22;38310;52.796;6.942;2023-04-16T01:57:40;8.00;99.90
52381;DHT22;38310;52.796;6.942;2023-04-16T02:00:06;8.00;99.90
52381;DHT22;38310;52.796;6.942;2023-04-16T02:02:34;8.00;99.90
52381;DHT22;38310;52.796;6.942;2023-04-16T02:05:00;8.00;99.90
52381;DHT22;38310;52.796;6.942;2023-04-16T02:07:26;8.00;99.90
52381;DHT22;38310;52.796;6.942;2023-04-16T02:09:52;8.00;99.90
52381;DHT22;38310;52.796;6.942;2023-04-16T02:12:18;8.00;99.90
52381;DHT22;38310;52.796;6.942;2023-04-16T02:14:44;8.00;99.90
52381;DHT22;38310;52.796;6.942;2023-04-16T02:17:10;8.00;99.90
52381;DHT22;38310;52.796;6.942;2023-04-16T02:19:36;8.00;99.90
52381;DHT22;38310;52.796;6.942;2023-04-16T02:22:02;7.90;99.90
52381;DHT22;38310;52.796;6.942;2023-04-16T02:24:28;7.90;99.90
52381;DHT22;38310;52.796;6.942;2023-04-16T02:26:54;7.90;99.90
52381;DHT22;38310;52.796;6.942;2023-04-16T02:29:20;7.80;99.90
52381;DHT22;38310;52.796;6.942;2023-04-16T02:31:47;7.80;99.90
52381;DHT22;38310;52.796;6.942;2023-04-16T02:34:13;8.00;99.90
52381;DHT22;38310;52.796;6.942;2023-04-16T02:36:39;7.80;99.90
52381;DHT22;38310;52.796;6.942;2023-04-16T02:39:05;7.80;99.90
52381;DHT22;38310;52.796;6.942;2023-04-16T02:41:31;7.80;99.90
52381;DHT22;38310;52.796;6.942;2023-04-16T02:43:56;7.80;99.90
52381;DHT22;38310;52.796;6.942;2023-04-16T02:46:22;7.80;99.90
52381;DHT22;38310;52.796;6.942;2023-04-16T02:48:48;7.80;99.90
52381;DHT22;38310;52.796;6.942;2023-04-16T02:51:14;7.80;99.90
52381;DHT22;38310;52.796;6.942;2023-04-16T02:53:39;7.80;99.90
52381;DHT22;38310;52.796;6.942;2023-04-16T02:56:06;7.80;99.90
52381;DHT22;38310;52.796;6.942;2023-04-16T02:58:31;7.70;99.90
52381;DHT22;38310;52.796;6.942;2023-04-16T03:00:57;7.80;99.90
52381;DHT22;38310;52.796;6.942;2023-04-16T03:03:23;7.70;99.90
52381;DHT22;38310;52.796;6.942;2023-04-16T03:05:49;7.70;99.90
52381;DHT22;38310;52.796;6.942;2023-04-16T03:08:14;7.70;99.90
52381;DHT22;38310;52.796;6.942;2023-04-16T03:10:40;7.70;99.90
52381;DHT22;38310;52.796;6.942;2023-04-16T03:13:06;7.60;99.90
52381;DHT22;38310;52.796;6.942;2023-04-16T03:15:32;7.90;99.90
52381;DHT22;38310;52.796;6.942;2023-04-16T03:17:58;7.60;99.90
52381;DHT22;38310;52.796;6.942;2023-04-16T03:20:24;7.60;99.90
52381;DHT22;38310;52.796;6.942;2023-04-16T03:22:50;7.60;99.90
52381;DHT22;38310;52.796;6.942;2023-04-16T03:25:17;7.60;99.90
52381;DHT22;38310;52.796;6.942;2023-04-16T03:27:43;7.60;99.90
52381;DHT22;38310;52.796;6.942;2023-04-16T03:30:13;7.60;99.90
52381;DHT22;38310;52.796;6.942;2023-04-16T03:32:39;7.60;99.90
52381;DHT22;38310;52.796;6.942;2023-04-16T03:35:06;7.60;99.90
52381;DHT22;38310;52.796;6.942;2023-04-16T03:37:33;7.60;99.90
52381;DHT22;38310;52.796;6.942;2023-04-16T03:39:59;7.60;99.90
52381;DHT22;38310;52.796;6.942;2023-04-16T03:42:24;7.60;99.90
52381;DHT22;38310;52.796;6.942;2023-04-16T03:44:50;7.60;99.90
52381;DHT22;38310;52.796;6.942;2023-04-16T03:47:18;7.60;99.90
52381;DHT22;38310;52.796;6.942;2023-04-16T03:49:44;7.60;99.90
52381;DHT22;38310;52.796;6.942;2023-04-16T03:52:10;7.60;99.90
52381;DHT22;38310;52.796;6.942;2023-04-16T03:54:36;7.60;99.90
52381;DHT22;38310;52.796;6.942;2023-04-16T03:57:02;7.60;99.90
52381;DHT22;38310;52.796;6.942;2023-04-16T03:59:27;7.50;99.90
52381;DHT22;38310;52.796;6.942;2023-04-16T04:01:53;7.60;99.90
52381;DHT22;38310;52.796;6.942;2023-04-16T04:04:19;7.60;99.90
52381;DHT22;38310;52.796;6.942;2023-04-16T04:06:45;7.60;99.90
52381;DHT22;38310;52.796;6.942;2023-04-16T04:09:14;7.60;99.90
52381;DHT22;38310;52.796;6.942;2023-04-16T04:11:41;7.60;99.90
52381;DHT22;38310;52.796;6.942;2023-04-16T04:14:08;7.60;99.90
52381;DHT22;38310;52.796;6.942;2023-04-16T04:16:34;7.60;99.90
52381;DHT22;38310;52.796;6.942;2023-04-16T04:18:59;7.60;99.90
52381;DHT22;38310;52.796;6.942;2023-04-16T04:21:26;7.60;99.90
52381;DHT22;38310;52.796;6.942;2023-04-16T04:23:53;7.60;99.90
52381;DHT22;38310;52.796;6.942;2023-04-16T04:26:18;7.60;99.90
52381;DHT22;38310;52.796;6.942;2023-04-16T04:28:44;7.60;99.90
52381;DHT22;38310;52.796;6.942;2023-04-16T04:31:11;7.60;99.90
52381;DHT22;38310;52.796;6.942;2023-04-16T04:33:37;7.60;99.90
52381;DHT22;38310;52.796;6.942;2023-04-16T04:36:03;8.20;99.90
52381;DHT22;38310;52.796;6.942;2023-04-16T04:38:29;7.60;99.90
52381;DHT22;38310;52.796;6.942;2023-04-16T04:40:55;7.60;99.90
52381;DHT22;38310;52.796;6.942;2023-04-16T04:43:22;7.60;99.90
52381;DHT22;38310;52.796;6.942;2023-04-16T04:45:47;8.20;99.90
52381;DHT22;38310;52.796;6.942;2023-04-16T04:48:13;7.60;99.90
52381;DHT22;38310;52.796;6.942;2023-04-16T04:50:40;7.60;99.90
52381;DHT22;38310;52.796;6.942;2023-04-16T04:53:06;7.60;99.90
52381;DHT22;38310;52.796;6.942;2023-04-16T04:55:38;7.60;99.90
52381;DHT22;38310;52.796;6.942;2023-04-16T04:58:07;7.60;99.90
52381;DHT22;38310;52.796;6.942;2023-04-16T05:00:33;7.70;99.90
52381;DHT22;38310;52.796;6.942;2023-04-16T05:03:02;7.60;99.90
52381;DHT22;38310;52.796;6.942;2023-04-16T05:05:28;7.70;99.90
52381;DHT22;38310;52.796;6.942;2023-04-16T05:07:54;7.60;99.90
52381;DHT22;38310;52.796;6.942;2023-04-16T05:10:20;7.60;99.90
52381;DHT22;38310;52.796;6.942;2023-04-16T05:12:48;7.70;99.90
52381;DHT22;38310;52.796;6.942;2023-04-16T05:15:15;7.70;99.90
52381;DHT22;38310;52.796;6.942;2023-04-16T05:17:40;7.60;99.90
52381;DHT22;38310;52.796;6.942;2023-04-16T05:20:10;7.70;99.90
52381;DHT22;38310;52.796;6.942;2023-04-16T05:22:35;7.70;99.90
52381;DHT22;38310;52.796;6.942;2023-04-16T05:25:01;7.70;99.90
52381;DHT22;38310;52.796;6.942;2023-04-16T05:27:27;7.70;99.90
52381;DHT22;38310;52.796;6.942;2023-04-16T05:29:53;7.70;99.90
52381;DHT22;38310;52.796;6.942;2023-04-16T05:32:18;7.70;99.90
52381;DHT22;38310;52.796;6.942;2023-04-16T05:34:44;7.70;99.90
52381;DHT22;38310;52.796;6.942;2023-04-16T05:37:10;7.80;99.90
52381;DHT22;38310;52.796;6.942;2023-04-16T05:39:35;7.70;99.90
52381;DHT22;38310;52.796;6.942;2023-04-16T05:42:01;8.10;99.90
52381;DHT22;38310;52.796;6.942;2023-04-16T05:44:27;7.70;99.90
52381;DHT22;38310;52.796;6.942;2023-04-16T05:46:52;7.70;99.90
52381;DHT22;38310;52.796;6.942;2023-04-16T05:49:18;7.70;99.90
52381;DHT22;38310;52.796;6.942;2023-04-16T05:51:44;7.70;99.90
52381;DHT22;38310;52.796;6.942;2023-04-16T05:54:10;7.70;99.90
52381;DHT22;38310;52.796;6.942;2023-04-16T05:56:36;7.80;99.90
52381;DHT22;38310;52.796;6.942;2023-04-16T05:59:01;7.80;99.90
52381;DHT22;38310;52.796;6.942;2023-04-16T06:01:27;7.80;99.90
52381;DHT22;38310;52.796;6.942;2023-04-16T06:03:53;7.80;99.90
52381;DHT22;38310;52.796;6.942;2023-04-16T06:06:18;7.80;99.90
52381;DHT22;38310;52.796;6.942;2023-04-16T06:08:44;7.90;99.90
52381;DHT22;38310;52.796;6.942;2023-04-16T06:11:10;7.90;99.90
52381;DHT22;38310;52.796;6.942;2023-04-16T06:13:38;8.00;99.90
52381;DHT22;38310;52.796;6.942;2023-04-16T06:16:04;8.00;99.90
52381;DHT22;38310;52.796;6.942;2023-04-16T06:18:30;8.10;99.90
52381;DHT22;38310;52.796;6.942;2023-04-16T06:20:56;8.10;99.90
52381;DHT22;38310;52.796;6.942;2023-04-16T06:23:23;8.10;99.90
52381;DHT22;38310;52.796;6.942;2023-04-16T06:25:49;8.20;99.90
52381;DHT22;38310;52.796;6.942;2023-04-16T06:28:14;8.20;99.90
52381;DHT22;38310;52.796;6.942;2023-04-16T06:30:40;8.30;99.90
52381;DHT22;38310;52.796;6.942;2023-04-16T06:33:06;8.30;99.90
52381;DHT22;38310;52.796;6.942;2023-04-16T06:35:32;8.30;99.90
52381;DHT22;38310;52.796;6.942;2023-04-16T06:37:57;8.40;99.90
52381;DHT22;38310;52.796;6.942;2023-04-16T06:40:23;8.40;99.90
52381;DHT22;38310;52.796;6.942;2023-04-16T06:42:49;8.40;99.90
52381;DHT22;38310;52.796;6.942;2023-04-16T06:45:15;8.50;99.90
52381;DHT22;38310;52.796;6.942;2023-04-16T06:47:40;8.50;99.90
52381;DHT22;38310;52.796;6.942;2023-04-16T06:50:06;8.50;99.90
52381;DHT22;38310;52.796;6.942;2023-04-16T06:52:32;8.60;99.90
52381;DHT22;38310;52.796;6.942;2023-04-16T06:54:58;8.60;99.90
52381;DHT22;38310;52.796;6.942;2023-04-16T06:57:23;8.70;99.90
52381;DHT22;38310;52.796;6.942;2023-04-16T06:59:49;9.10;99.90
52381;DHT22;38310;52.796;6.942;2023-04-16T07:02:15;8.70;99.90
52381;DHT22;38310;52.796;6.942;2023-04-16T07:04:40;8.70;99.90
52381;DHT22;38310;52.796;6.942;2023-04-16T07:07:07;8.70;99.90
52381;DHT22;38310;52.796;6.942;2023-04-16T07:09:32;8.70;99.90
52381;DHT22;38310;52.796;6.942;2023-04-16T07:11:58;8.70;99.90
52381;DHT22;38310;52.796;6.942;2023-04-16T07:14:24;8.70;99.90
52381;DHT22;38310;52.796;6.942;2023-04-16T07:16:49;8.70;99.90
52381;DHT22;38310;52.796;6.942;2023-04-16T07:19:15;8.70;99.90
52381;DHT22;38310;52.796;6.942;2023-04-16T07:21:41;8.80;99.90
52381;DHT22;38310;52.796;6.942;2023-04-16T07:24:09;8.80;99.90
52381;DHT22;38310;52.796;6.942;2023-04-16T07:26:35;8.80;99.90
52381;DHT22;38310;52.796;6.942;2023-04-16T07:29:01;8.80;99.90
52381;DHT22;38310;52.796;6.942;2023-04-16T07:31:27;8.80;99.90
52381;DHT22;38310;52.796;6.942;2023-04-16T07:33:52;8.70;99.90
52381;DHT22;38310;52.796;6.942;2023-04-16T07:36:19;8.80;99.90
52381;DHT22;38310;52.796;6.942;2023-04-16T07:38:45;8.80;99.90
52381;DHT22;38310;52.796;6.942;2023-04-16T07:41:11;8.80;99.90
52381;DHT22;38310;52.796;6.942;2023-04-16T07:43:37;8.90;99.90
52381;DHT22;38310;52.796;6.942;2023-04-16T07:46:02;8.90;99.90
52381;DHT22;38310;52.796;6.942;2023-04-16T07:48:28;9.00;99.90
52381;DHT22;38310;52.796;6.942;2023-04-16T07:50:54;9.10;99.90
52381;DHT22;38310;52.796;6.942;2023-04-16T07:53:20;9.20;99.90
52381;DHT22;38310;52.796;6.942;2023-04-16T07:55:45;9.30;99.90
52381;DHT22;38310;52.796;6.942;2023-04-16T07:58:11;10.30;99.90
52381;DHT22;38310;52.796;6.942;2023-04-16T08:00:37;9.40;99.90
52381;DHT22;38310;52.796;6.942;2023-04-16T08:03:02;9.50;99.90
52381;DHT22;38310;52.796;6.942;2023-04-16T08:05:28;9.60;99.90
52381;DHT22;38310;52.796;6.942;2023-04-16T08:07:54;9.60;99.90
52381;DHT22;38310;52.796;6.942;2023-04-16T08:10:20;9.80;99.90
52381;DHT22;38310;52.796;6.942;2023-04-16T08:12:45;9.80;99.90
52381;DHT22;38310;52.796;6.942;2023-04-16T08:15:11;9.80;99.90
52381;DHT22;38310;52.796;6.942;2023-04-16T08:17:37;9.90;99.90
52381;DHT22;38310;52.796;6.942;2023-04-16T08:20:03;9.90;99.90
52381;DHT22;38310;52.796;6.942;2023-04-16T08:22:29;10.10;99.90
52381;DHT22;38310;52.796;6.942;2023-04-16T08:24:55;10.20;99.90
52381;DHT22;38310;52.796;6.942;2023-04-16T08:27:21;10.20;99.90
52381;DHT22;38310;52.796;6.942;2023-04-16T08:29:47;10.30;99.90
52381;DHT22;38310;52.796;6.942;2023-04-16T08:32:13;10.40;99.90
52381;DHT22;38310;52.796;6.942;2023-04-16T08:34:38;10.50;99.90
52381;DHT22;38310;52.796;6.942;2023-04-16T08:37:04;10.60;99.90
52381;DHT22;38310;52.796;6.942;2023-04-16T08:39:30;10.70;99.90
52381;DHT22;38310;52.796;6.942;2023-04-16T08:41:56;10.80;99.90
52381;DHT22;38310;52.796;6.942;2023-04-16T08:44:30;10.90;99.90
52381;DHT22;38310;52.796;6.942;2023-04-16T08:46:57;11.10;99.90
52381;DHT22;38310;52.796;6.942;2023-04-16T08:49:24;11.20;99.90
52381;DHT22;38310;52.796;6.942;2023-04-16T08:51:55;11.30;99.90
52381;DHT22;38310;52.796;6.942;2023-04-16T08:54:30;11.40;99.90
52381;DHT22;38310;52.796;6.942;2023-04-16T08:56:57;11.60;99.90
52381;DHT22;38310;52.796;6.942;2023-04-16T08:59:26;11.70;99.90
52381;DHT22;38310;52.796;6.942;2023-04-16T09:01:56;11.90;99.90
52381;DHT22;38310;52.796;6.942;2023-04-16T09:04:26;12.00;99.90
52381;DHT22;38310;52.796;6.942;2023-04-16T09:06:56;12.10;99.90
52381;DHT22;38310;52.796;6.942;2023-04-16T09:09:25;12.30;99.90
52381;DHT22;38310;52.796;6.942;2023-04-16T09:11:51;12.60;99.90
52381;DHT22;38310;52.796;6.942;2023-04-16T09:14:18;12.90;99.90
52381;DHT22;38310;52.796;6.942;2023-04-16T09:16:45;12.90;99.90
52381;DHT22;38310;52.796;6.942;2023-04-16T09:19:11;12.90;99.90
52381;DHT22;38310;52.796;6.942;2023-04-16T09:21:39;13.00;99.90
52381;DHT22;38310;52.796;6.942;2023-04-16T09:24:07;13.00;99.90
52381;DHT22;38310;52.796;6.942;2023-04-16T09:26:34;13.20;99.90
52381;DHT22;38310;52.796;6.942;2023-04-16T09:28:59;13.30;99.90
52381;DHT22;38310;52.796;6.942;2023-04-16T09:31:25;13.20;99.90
52381;DHT22;38310;52.796;6.942;2023-04-16T09:34:04;13.30;99.90
52381;DHT22;38310;52.796;6.942;2023-04-16T09:36:31;13.30;99.90
52381;DHT22;38310;52.796;6.942;2023-04-16T09:38:58;13.30;99.90
52381;DHT22;38310;52.796;6.942;2023-04-16T09:41:29;13.30;99.90
52381;DHT22;38310;52.796;6.942;2023-04-16T09:43:57;13.40;99.90
52381;DHT22;38310;52.796;6.942;2023-04-16T09:46:30;13.60;99.90
52381;DHT22;38310;52.796;6.942;2023-04-16T09:48:57;13.50;99.90
52381;DHT22;38310;52.796;6.942;2023-04-16T09:51:22;13.50;99.90
52381;DHT22;38310;52.796;6.942;2023-04-16T09:53:55;13.60;99.90
52381;DHT22;38310;52.796;6.942;2023-04-16T09:56:24;13.60;99.90
52381;DHT22;38310;52.796;6.942;2023-04-16T09:58:55;13.80;99.90
52381;DHT22;38310;52.796;6.942;2023-04-16T10:01:22;13.90;99.90
52381;DHT22;38310;52.796;6.942;2023-04-16T10:03:49;13.90;99.90
52381;DHT22;38310;52.796;6.942;2023-04-16T10:06:17;14.10;99.90
52381;DHT22;38310;52.796;6.942;2023-04-16T10:11:13;14.10;99.90
52381;DHT22;38310;52.796;6.942;2023-04-16T10:13:39;14.10;99.90
52381;DHT22;38310;52.796;6.942;2023-04-16T10:16:09;14.10;99.90
52381;DHT22;38310;52.796;6.942;2023-04-16T10:18:36;14.20;99.90
52381;DHT22;38310;52.796;6.942;2023-04-16T10:21:03;14.20;99.90
52381;DHT22;38310;52.796;6.942;2023-04-16T10:23:30;14.40;99.90
52381;DHT22;38310;52.796;6.942;2023-04-16T10:25:57;14.50;99.90
52381;DHT22;38310;52.796;6.942;2023-04-16T10:28:24;14.50;99.90
52381;DHT22;38310;52.796;6.942;2023-04-16T10:30:51;14.50;99.90
52381;DHT22;38310;52.796;6.942;2023-04-16T10:33:22;14.50;99.90
52381;DHT22;38310;52.796;6.942;2023-04-16T10:35:52;14.70;99.90
52381;DHT22;38310;52.796;6.942;2023-04-16T10:38:31;14.80;99.90
52381;DHT22;38310;52.796;6.942;2023-04-16T10:40:58;14.90;99.90
52381;DHT22;38310;52.796;6.942;2023-04-16T10:43:24;15.00;99.90
52381;DHT22;38310;52.796;6.942;2023-04-16T10:45:50;15.10;99.90
52381;DHT22;38310;52.796;6.942;2023-04-16T10:48:19;15.30;99.90
52381;DHT22;38310;52.796;6.942;2023-04-16T10:50:55;15.60;99.90
52381;DHT22;38310;52.796;6.942;2023-04-16T10:53:26;15.50;99.90
52381;DHT22;38310;52.796;6.942;2023-04-16T10:55:56;15.60;99.90
52381;DHT22;38310;52.796;6.942;2023-04-16T10:58:29;15.70;99.90
52381;DHT22;38310;52.796;6.942;2023-04-16T11:00:58;15.70;99.90
52381;DHT22;38310;52.796;6.942;2023-04-16T11:03:24;15.80;99.90
52381;DHT22;38310;52.796;6.942;2023-04-16T11:05:50;15.70;99.90
52381;DHT22;38310;52.796;6.942;2023-04-16T11:08:15;15.80;99.90
52381;DHT22;38310;52.796;6.942;2023-04-16T11:10:41;15.90;99.90
52381;DHT22;38310;52.796;6.942;2023-04-16T11:13:07;16.10;99.90
52381;DHT22;38310;52.796;6.942;2023-04-16T11:15:33;16.20;99.90
52381;DHT22;38310;52.796;6.942;2023-04-16T11:17:59;16.20;99.90
52381;DHT22;38310;52.796;6.942;2023-04-16T11:20:27;16.20;99.90
52381;DHT22;38310;52.796;6.942;2023-04-16T11:22:54;16.30;99.90
52381;DHT22;38310;52.796;6.942;2023-04-16T11:25:21;16.50;99.90
52381;DHT22;38310;52.796;6.942;2023-04-16T11:27:48;16.40;99.90
52381;DHT22;38310;52.796;6.942;2023-04-16T11:30:14;16.50;99.90
52381;DHT22;38310;52.796;6.942;2023-04-16T11:32:39;16.60;99.90
52381;DHT22;38310;52.796;6.942;2023-04-16T11:35:23;16.60;99.90
52381;DHT22;38310;52.796;6.942;2023-04-16T11:37:55;16.70;99.90
52381;DHT22;38310;52.796;6.942;2023-04-16T11:40:20;16.70;99.90
52381;DHT22;38310;52.796;6.942;2023-04-16T11:42:46;16.60;99.90
52381;DHT22;38310;52.796;6.942;2023-04-16T11:45:12;16.60;99.90
52381;DHT22;38310;52.796;6.942;2023-04-16T11:50:24;17.00;99.90
52381;DHT22;38310;52.796;6.942;2023-04-16T11:52:52;17.10;99.90
52381;DHT22;38310;52.796;6.942;2023-04-16T11:55:19;17.30;99.90
52381;DHT22;38310;52.796;6.942;2023-04-16T11:57:45;17.30;99.90
52381;DHT22;38310;52.796;6.942;2023-04-16T12:00:12;17.30;99.90
52381;DHT22;38310;52.796;6.942;2023-04-16T12:05:35;17.40;99.90
52381;DHT22;38310;52.796;6.942;2023-04-16T12:08:07;17.40;99.90
52381;DHT22;38310;52.796;6.942;2023-04-16T12:10:35;17.20;99.90
52381;DHT22;38310;52.796;6.942;2023-04-16T12:13:14;17.20;99.90
52381;DHT22;38310;52.796;6.942;2023-04-16T12:15:48;17.00;99.90
52381;DHT22;38310;52.796;6.942;2023-04-16T12:18:16;17.00;99.90
52381;DHT22;38310;52.796;6.942;2023-04-16T12:20:43;17.00;99.90
52381;DHT22;38310;52.796;6.942;2023-04-16T12:23:20;17.00;99.90
52381;DHT22;38310;52.796;6.942;2023-04-16T12:25:46;17.00;99.90
52381;DHT22;38310;52.796;6.942;2023-04-16T12:28:14;17.10;99.90
52381;DHT22;38310;52.796;6.942;2023-04-16T12:30:50;17.10;99.90
52381;DHT22;38310;52.796;6.942;2023-04-16T12:33:18;17.30;99.90
52381;DHT22;38310;52.796;6.942;2023-04-16T12:35:44;17.20;99.90
52381;DHT22;38310;52.796;6.942;2023-04-16T12:38:10;17.30;99.90
52381;DHT22;38310;52.796;6.942;2023-04-16T12:40:37;17.20;99.90
52381;DHT22;38310;52.796;6.942;2023-04-16T12:43:03;17.10;99.90
52381;DHT22;38310;52.796;6.942;2023-04-16T12:45:28;16.90;99.90
52381;DHT22;38310;52.796;6.942;2023-04-16T12:47:54;16.90;99.90
52381;DHT22;38310;52.796;6.942;2023-04-16T12:50:21;16.60;99.90
52381;DHT22;38310;52.796;6.942;2023-04-16T12:52:47;16.50;99.90
52381;DHT22;38310;52.796;6.942;2023-04-16T12:55:13;16.60;99.90
52381;DHT22;38310;52.796;6.942;2023-04-16T12:57:39;16.80;99.90
52381;DHT22;38310;52.796;6.942;2023-04-16T13:00:06;16.90;99.90
52381;DHT22;38310;52.796;6.942;2023-04-16T13:02:32;17.10;99.90
52381;DHT22;38310;52.796;6.942;2023-04-16T13:04:58;16.80;99.90
52381;DHT22;38310;52.796;6.942;2023-04-16T13:07:24;16.60;99.90
52381;DHT22;38310;52.796;6.942;2023-04-16T13:09:51;16.50;99.90
52381;DHT22;38310;52.796;6.942;2023-04-16T13:12:17;16.40;99.90
52381;DHT22;38310;52.796;6.942;2023-04-16T13:14:43;16.40;99.90
52381;DHT22;38310;52.796;6.942;2023-04-16T13:17:09;16.40;99.90
52381;DHT22;38310;52.796;6.942;2023-04-16T13:19:35;16.30;99.90
52381;DHT22;38310;52.796;6.942;2023-04-16T13:22:01;16.40;99.90
52381;DHT22;38310;52.796;6.942;2023-04-16T13:24:26;16.50;99.90
52381;DHT22;38310;52.796;6.942;2023-04-16T13:26:52;16.60;99.90
52381;DHT22;38310;52.796;6.942;2023-04-16T13:29:19;16.80;99.90
52381;DHT22;38310;52.796;6.942;2023-04-16T13:31:45;17.00;99.90
52381;DHT22;38310;52.796;6.942;2023-04-16T13:34:11;17.00;99.90
52381;DHT22;38310;52.796;6.942;2023-04-16T13:36:37;17.10;99.90
52381;DHT22;38310;52.796;6.942;2023-04-16T13:39:03;17.10;99.90
52381;DHT22;38310;52.796;6.942;2023-04-16T13:41:30;17.30;99.90
52381;DHT22;38310;52.796;6.942;2023-04-16T13:43:56;17.40;99.90
52381;DHT22;38310;52.796;6.942;2023-04-16T13:46:22;17.50;99.90
52381;DHT22;38310;52.796;6.942;2023-04-16T13:48:48;17.40;99.90
52381;DHT22;38310;52.796;6.942;2023-04-16T13:51:13;17.50;99.90
52381;DHT22;38310;52.796;6.942;2023-04-16T13:53:40;17.40;99.90
52381;DHT22;38310;52.796;6.942;2023-04-16T13:56:06;17.40;99.90
52381;DHT22;38310;52.796;6.942;2023-04-16T13:58:32;17.10;99.90
52381;DHT22;38310;52.796;6.942;2023-04-16T14:00:58;17.10;99.90
52381;DHT22;38310;52.796;6.942;2023-04-16T14:03:24;17.00;99.90
52381;DHT22;38310;52.796;6.942;2023-04-16T14:05:51;16.80;99.90
52381;DHT22;38310;52.796;6.942;2023-04-16T14:08:18;16.70;99.90
52381;DHT22;38310;52.796;6.942;2023-04-16T14:10:46;16.60;99.90
52381;DHT22;38310;52.796;6.942;2023-04-16T14:13:12;16.40;99.90
52381;DHT22;38310;52.796;6.942;2023-04-16T14:15:38;16.40;99.90
52381;DHT22;38310;52.796;6.942;2023-04-16T14:18:03;16.30;99.90
52381;DHT22;38310;52.796;6.942;2023-04-16T14:20:29;16.30;99.90
52381;DHT22;38310;52.796;6.942;2023-04-16T14:22:55;16.20;99.90
52381;DHT22;38310;52.796;6.942;2023-04-16T14:25:22;16.20;99.90
52381;DHT22;38310;52.796;6.942;2023-04-16T14:27:47;16.30;99.90
52381;DHT22;38310;52.796;6.942;2023-04-16T14:30:13;16.30;99.90
52381;DHT22;38310;52.796;6.942;2023-04-16T14:32:39;16.20;99.90
52381;DHT22;38310;52.796;6.942;2023-04-16T14:35:05;16.30;99.90
52381;DHT22;38310;52.796;6.942;2023-04-16T14:37:32;16.20;99.90
52381;DHT22;38310;52.796;6.942;2023-04-16T14:40:01;16.10;99.90
52381;DHT22;38310;52.796;6.942;2023-04-16T14:42:29;16.10;99.90
52381;DHT22;38310;52.796;6.942;2023-04-16T14:44:55;16.20;99.90
52381;DHT22;38310;52.796;6.942;2023-04-16T14:47:20;16.20;99.90
52381;DHT22;38310;52.796;6.942;2023-04-16T14:49:46;16.30;99.90
52381;DHT22;38310;52.796;6.942;2023-04-16T14:52:12;16.30;99.90
52381;DHT22;38310;52.796;6.942;2023-04-16T14:54:38;16.30;99.90
52381;DHT22;38310;52.796;6.942;2023-04-16T14:57:03;16.30;99.90
52381;DHT22;38310;52.796;6.942;2023-04-16T14:59:29;16.20;99.90
52381;DHT22;38310;52.796;6.942;2023-04-16T15:01:56;16.20;99.90
52381;DHT22;38310;52.796;6.942;2023-04-16T15:04:23;16.20;99.90
52381;DHT22;38310;52.796;6.942;2023-04-16T15:06:48;16.20;99.90
52381;DHT22;38310;52.796;6.942;2023-04-16T15:09:14;16.10;99.90
52381;DHT22;38310;52.796;6.942;2023-04-16T15:11:40;16.10;99.90
52381;DHT22;38310;52.796;6.942;2023-04-16T15:14:06;16.10;99.90
52381;DHT22;38310;52.796;6.942;2023-04-16T15:16:32;16.10;99.90
52381;DHT22;38310;52.796;6.942;2023-04-16T15:18:58;16.00;99.90
52381;DHT22;38310;52.796;6.942;2023-04-16T15:21:24;16.00;99.90
52381;DHT22;38310;52.796;6.942;2023-04-16T15:23:51;16.00;99.90
52381;DHT22;38310;52.796;6.942;2023-04-16T15:26:17;16.00;99.90
52381;DHT22;38310;52.796;6.942;2023-04-16T15:28:42;15.80;99.90
52381;DHT22;38310;52.796;6.942;2023-04-16T15:31:09;15.70;99.90
52381;DHT22;38310;52.796;6.942;2023-04-16T15:33:35;15.70;99.90
52381;DHT22;38310;52.796;6.942;2023-04-16T15:36:01;15.70;99.90
52381;DHT22;38310;52.796;6.942;2023-04-16T15:38:28;15.80;99.90
52381;DHT22;38310;52.796;6.942;2023-04-16T15:40:57;15.80;99.90
52381;DHT22;38310;52.796;6.942;2023-04-16T15:43:26;15.70;99.90